Aérodrome :
LOGIN :

S'inscrire | Disclaimer

   EN    FR    IT 

 










Légende :    VFR   VFR Marginal   IFR   IFR Intensif   IFR Très Intensif
Visi : 
Plafond : 
>= 8 km
>= 3000ft
5 à 8 km
1000 à 3000 ft
1500m à 5 km
500 à 1000 ft
800 à 1500m
200 à 500 ft
< 800m
< 200 ft
Symboles :   Orages  Brouillard  Fortes neiges  Fortes précipitations  Vent > 20 kt
SIGMETs :   Divers  Orages  Givrage  Turbulence  Onde Orograph.  Cendres Volcan.






- Altitude de l'aérodrome : 24 ft
- Code IATA : AXD


LGAL - Dimokritos

DERNIER METAR :
  • 141620Z 06013KT 9999 FEW035 27/10 Q1012

METARs EXPIRÉS :
  • 141550Z 06013KT 9999 FEW035 27/10 Q1012
  • 141520Z 05011KT 9999 FEW035 27/09 Q1012
  • 141450Z 05013KT 9999 FEW035 28/09 Q1012
  • 141420Z 04010KT 9999 FEW035 28/08 Q1012
  • 141350Z 07011KT 9999 FEW035 29/09 Q1012

TAF TAF LGAL
Valide du 14 à 15h jusqu'au 15 à 00h UTC


141400Z 1415/1424 04015KT 9999 FEW025 SCT050



MET'MAP, la Météo Aéronautique d'un coup d'oeil ! - Copyright ORBIFLY Décembre 2007 - Disclaimer

ORBIFLY MET'MAP TEAM :

Programmation & Développement : Alexandra Zaïnal
Sur une idée originale de : Baudouin d'Aumeries
Assistance à la programmation : Marc-Olivier Méhu
Soutien technique & logistique : Manuel Goepfert

Contact : metmap@orbifly.com




SOURCES & CREDITS :

   NOAA